createdAt,value
2019-05-16T00:02:15.356Z,10.00
2019-05-16T00:04:48.023Z,10.00
2019-05-16T00:07:19.182Z,10.00
2019-05-16T00:09:50.994Z,9.90
2019-05-16T00:12:21.393Z,9.90
2019-05-16T00:14:51.757Z,9.80
2019-05-16T00:17:22.337Z,9.80
2019-05-16T00:19:52.696Z,9.80
2019-05-16T00:22:23.086Z,9.70
2019-05-16T00:24:53.520Z,9.70
2019-05-16T00:27:23.969Z,9.70
2019-05-16T00:29:54.326Z,9.60
2019-05-16T00:32:24.698Z,9.50
2019-05-16T00:34:55.058Z,9.50
2019-05-16T00:37:25.445Z,9.50
2019-05-16T00:39:55.807Z,9.50
2019-05-16T00:42:28.463Z,9.40
2019-05-16T00:44:58.518Z,9.30
2019-05-16T00:47:29.135Z,9.30
2019-05-16T00:49:59.571Z,9.30
2019-05-16T00:52:30.529Z,9.20
2019-05-16T00:55:00.896Z,9.20
2019-05-16T00:57:31.992Z,9.10
2019-05-16T01:00:03.262Z,9.00
2019-05-16T01:02:33.634Z,9.00
2019-05-16T01:05:04.638Z,9.00
2019-05-16T01:07:35.014Z,9.00
2019-05-16T01:10:08.765Z,8.90
2019-05-16T01:12:39.189Z,8.90
2019-05-16T01:15:10.633Z,8.90
2019-05-16T01:17:41.016Z,8.80
2019-05-16T01:20:11.540Z,8.80
2019-05-16T01:22:41.923Z,8.80
2019-05-16T01:25:12.284Z,8.70
2019-05-16T01:27:42.670Z,8.70
2019-05-16T01:30:32.376Z,8.70
2019-05-16T01:33:02.930Z,8.60
2019-05-16T01:35:33.666Z,8.60
2019-05-16T01:38:04.468Z,8.60
2019-05-16T01:40:34.832Z,8.60
2019-05-16T01:43:05.215Z,8.50
2019-05-16T01:45:35.580Z,8.50
2019-05-16T01:48:08.044Z,8.50
2019-05-16T01:50:38.861Z,8.40
2019-05-16T01:53:09.351Z,8.40
2019-05-16T01:55:39.715Z,8.40
2019-05-16T01:58:10.097Z,8.40
2019-05-16T02:00:52.738Z,8.30
2019-05-16T02:03:13.968Z,8.30
2019-05-16T02:05:44.329Z,8.30
2019-05-16T02:08:14.841Z,8.20
2019-05-16T02:10:45.201Z,8.20
2019-05-16T02:13:17.984Z,8.20
2019-05-16T02:15:48.815Z,8.20
2019-05-16T02:18:19.491Z,8.10
2019-05-16T02:20:49.854Z,8.10
2019-05-16T02:23:20.243Z,8.00
2019-05-16T02:25:50.675Z,8.00
2019-05-16T02:28:24.693Z,7.90
2019-05-16T02:30:53.390Z,7.90
2019-05-16T02:33:23.774Z,7.90
2019-05-16T02:35:55.684Z,7.90
2019-05-16T02:38:26.219Z,7.90
2019-05-16T02:40:56.576Z,7.80
2019-05-16T02:43:26.980Z,7.80
2019-05-16T02:46:00.815Z,7.70
2019-05-16T02:48:31.804Z,7.70
2019-05-16T02:51:02.081Z,7.60
2019-05-16T02:53:32.503Z,7.60
2019-05-16T02:56:02.859Z,7.50
2019-05-16T02:58:33.249Z,7.50
2019-05-16T03:01:03.854Z,7.40
2019-05-16T03:03:34.421Z,7.40
2019-05-16T03:06:05.519Z,7.50
2019-05-16T03:08:40.958Z,7.40
2019-05-16T03:11:11.851Z,7.40
2019-05-16T03:13:44.819Z,7.40
2019-05-16T03:16:16.841Z,7.30
2019-05-16T03:18:51.579Z,7.30
2019-05-16T03:21:24.859Z,7.30
2019-05-16T03:23:55.317Z,7.30
2019-05-16T03:26:25.686Z,7.30
2019-05-16T03:28:56.877Z,7.30
2019-05-16T03:31:27.609Z,7.20
2019-05-16T03:34:05.829Z,7.20
2019-05-16T03:36:34.549Z,7.10
2019-05-16T03:39:02.122Z,7.00
2019-05-16T03:41:32.961Z,7.00
2019-05-16T03:44:03.644Z,6.90
2019-05-16T03:46:35.032Z,6.90
2019-05-16T03:49:05.533Z,6.80
2019-05-16T03:51:35.904Z,6.70
2019-05-16T03:54:06.287Z,6.70
2019-05-16T03:56:36.644Z,6.70
2019-05-16T03:59:07.026Z,6.80
2019-05-16T04:01:40.665Z,6.70
2019-05-16T04:04:11.762Z,6.80
2019-05-16T04:06:42.594Z,6.70
2019-05-16T04:09:12.975Z,6.80
2019-05-16T04:11:43.341Z,6.80
2019-05-16T04:14:14.777Z,6.80
2019-05-16T04:16:45.151Z,6.80
2019-05-16T04:19:15.530Z,6.80
2019-05-16T04:21:45.890Z,6.70
2019-05-16T04:24:16.275Z,6.80
2019-05-16T04:26:46.647Z,6.80
2019-05-16T04:29:17.048Z,6.80
2019-05-16T04:31:50.894Z,6.80
2019-05-16T04:34:20.757Z,6.80
2019-05-16T04:36:51.732Z,6.80
2019-05-16T04:39:23.201Z,6.90
2019-05-16T04:41:53.569Z,6.90
2019-05-16T04:44:25.527Z,7.00
2019-05-16T04:46:55.888Z,7.00
2019-05-16T04:49:26.265Z,7.10
2019-05-16T04:51:56.621Z,7.20
2019-05-16T04:54:27.009Z,7.40
2019-05-16T04:57:01.225Z,7.50
2019-05-16T04:59:31.259Z,7.60
2019-05-16T05:02:02.405Z,7.70
2019-05-16T05:04:32.794Z,7.90
2019-05-16T05:07:03.185Z,8.00
2019-05-16T05:09:33.622Z,8.10
2019-05-16T05:12:04.981Z,8.20
2019-05-16T05:14:35.561Z,8.30
2019-05-16T05:17:06.221Z,8.40
2019-05-16T05:19:36.623Z,8.60
2019-05-16T05:22:06.989Z,8.70
2019-05-16T05:24:37.366Z,8.70
2019-05-16T05:27:10.286Z,8.80
2019-05-16T05:29:40.007Z,8.80
2019-05-16T05:32:14.311Z,8.80
2019-05-16T05:34:42.629Z,8.90
2019-05-16T05:37:13.013Z,9.00
2019-05-16T05:39:43.407Z,9.30
2019-05-16T05:42:13.762Z,9.80
2019-05-16T05:44:44.172Z,10.20
2019-05-16T05:47:14.532Z,10.60
2019-05-16T05:49:44.927Z,11.10
2019-05-16T05:52:15.295Z,11.50
2019-05-16T05:54:45.687Z,12.50
2019-05-16T05:57:16.073Z,13.40
2019-05-16T05:59:46.464Z,13.20
2019-05-16T06:02:16.843Z,12.80
2019-05-16T06:04:50.085Z,13.40
2019-05-16T06:07:20.634Z,14.40
2019-05-16T06:09:56.257Z,14.10
2019-05-16T06:12:23.127Z,13.40
2019-05-16T06:14:53.544Z,13.10
2019-05-16T06:17:23.907Z,13.00
2019-05-16T06:19:54.333Z,13.00
2019-05-16T06:22:24.717Z,12.80
2019-05-16T06:24:55.144Z,12.80
2019-05-16T06:27:25.497Z,12.80
2019-05-16T06:29:57.423Z,12.80
2019-05-16T06:32:30.217Z,12.80
2019-05-16T06:35:00.238Z,13.00
2019-05-16T06:37:31.070Z,13.20
2019-05-16T06:40:01.506Z,13.50
2019-05-16T06:42:32.607Z,13.60
2019-05-16T06:45:02.988Z,13.80
2019-05-16T06:47:33.392Z,13.60
2019-05-16T06:50:05.110Z,13.80
2019-05-16T06:52:35.473Z,14.60
2019-05-16T06:55:10.109Z,15.50
2019-05-16T06:57:40.804Z,16.90
2019-05-16T07:00:12.283Z,17.50
2019-05-16T07:02:42.642Z,17.10
2019-05-16T07:05:13.249Z,17.10
2019-05-16T07:07:43.616Z,17.50
2019-05-16T07:10:14.754Z,17.50
2019-05-16T07:12:45.190Z,17.30
2019-05-16T07:15:16.745Z,17.10
2019-05-16T07:17:47.115Z,17.10
2019-05-16T07:20:20.962Z,17.70
2019-05-16T07:22:50.862Z,17.60
2019-05-16T07:25:22.387Z,17.30
2019-05-16T07:27:52.751Z,17.20
2019-05-16T07:30:23.352Z,17.00
2019-05-16T07:32:53.741Z,16.50
2019-05-16T07:35:24.137Z,16.30
2019-05-16T07:37:54.516Z,16.20
2019-05-16T07:40:26.919Z,16.20
2019-05-16T07:42:57.009Z,16.30
2019-05-16T07:45:27.406Z,16.80
2019-05-16T07:48:00.025Z,16.70
2019-05-16T07:50:30.178Z,17.10
2019-05-16T07:53:00.645Z,18.10
2019-05-16T07:55:31.795Z,18.30
2019-05-16T07:58:02.209Z,17.60
2019-05-16T08:00:48.161Z,17.00
2019-05-16T08:03:04.977Z,16.60
2019-05-16T08:05:35.974Z,16.30
2019-05-16T08:08:06.369Z,16.30
2019-05-16T08:10:46.084Z,16.20
2019-05-16T08:13:12.235Z,16.20
2019-05-16T08:15:42.018Z,16.20
2019-05-16T08:18:12.484Z,16.00
2019-05-16T08:20:42.923Z,16.00
2019-05-16T08:23:13.269Z,15.90
2019-05-16T08:25:43.677Z,15.90
2019-05-16T08:28:14.074Z,15.70
2019-05-16T08:30:44.452Z,15.60
2019-05-16T08:33:14.909Z,15.40
2019-05-16T08:35:45.386Z,15.50
2019-05-16T08:38:15.742Z,15.50
2019-05-16T08:41:04.444Z,15.50
2019-05-16T08:43:21.398Z,15.50
2019-05-16T08:45:51.627Z,15.50
2019-05-16T08:50:55.121Z,15.90
2019-05-16T08:53:25.562Z,16.10
2019-05-16T08:55:56.203Z,16.20
2019-05-16T08:58:26.534Z,16.20
2019-05-16T09:01:02.257Z,16.30
2019-05-16T09:03:32.285Z,16.40
2019-05-16T09:06:03.272Z,16.60
2019-05-16T09:08:35.000Z,16.70
2019-05-16T09:10:11.188Z,15.50
2019-05-16T09:11:26.881Z,16.90
2019-05-16T09:13:37.613Z,16.90
2019-05-16T09:16:08.015Z,16.60
2019-05-16T09:18:46.177Z,16.60
2019-05-16T09:21:10.489Z,16.70
2019-05-16T09:23:40.856Z,16.60
2019-05-16T09:26:15.807Z,16.90
2019-05-16T09:28:43.322Z,17.20
2019-05-16T09:31:13.742Z,17.50
2019-05-16T09:33:44.123Z,17.80
2019-05-16T09:36:17.332Z,18.10
2019-05-16T09:38:48.515Z,18.10
2019-05-16T09:41:19.115Z,18.10
2019-05-16T09:43:49.492Z,18.40
2019-05-16T09:46:19.888Z,19.00
2019-05-16T09:48:50.268Z,19.40
2019-05-16T09:51:21.501Z,20.00
2019-05-16T09:53:51.891Z,20.20
2019-05-16T09:56:22.358Z,20.20
2019-05-16T09:58:52.818Z,20.50
2019-05-16T10:01:23.188Z,20.80
2019-05-16T10:03:54.629Z,20.70
2019-05-16T10:06:27.442Z,20.20
2019-05-16T10:08:57.151Z,20.10
2019-05-16T10:11:31.218Z,20.50
2019-05-16T10:13:59.702Z,20.70
2019-05-16T10:16:30.110Z,20.40
2019-05-16T10:19:00.516Z,19.90
2019-05-16T10:21:30.960Z,19.60
2019-05-16T10:24:13.634Z,20.10
2019-05-16T10:26:46.565Z,20.50
2019-05-16T10:29:18.479Z,20.50
2019-05-16T10:31:52.733Z,19.90
2019-05-16T10:34:20.359Z,19.50
2019-05-16T10:36:51.807Z,19.50
2019-05-16T10:39:22.717Z,20.00
2019-05-16T10:41:53.081Z,20.50
2019-05-16T10:44:23.526Z,20.90
2019-05-16T10:46:53.899Z,21.10
2019-05-16T10:49:34.268Z,21.20
2019-05-16T10:51:57.674Z,21.70
2019-05-16T10:54:28.159Z,22.30
2019-05-16T10:56:58.703Z,22.50
2019-05-16T11:02:01.398Z,23.20
2019-05-16T11:04:49.602Z,22.70
2019-05-16T11:07:03.956Z,22.30
2019-05-16T11:09:34.319Z,22.10
2019-05-16T11:12:04.718Z,21.80
2019-05-16T11:14:37.035Z,21.50
2019-05-16T11:17:12.770Z,21.50
2019-05-16T11:19:39.458Z,21.20
2019-05-16T11:22:09.847Z,20.80
2019-05-16T11:24:40.693Z,20.60
2019-05-16T11:27:11.181Z,20.80
2019-05-16T11:29:41.592Z,21.00
2019-05-16T11:32:11.951Z,21.00
2019-05-16T11:34:42.353Z,20.40
2019-05-16T11:37:12.709Z,20.20
2019-05-16T11:39:43.115Z,20.30
2019-05-16T11:42:13.499Z,20.10
2019-05-16T11:44:47.580Z,19.90
2019-05-16T11:47:16.566Z,19.90
2019-05-16T11:49:48.277Z,20.10
2019-05-16T11:52:18.650Z,20.30
2019-05-16T11:54:49.026Z,20.20
2019-05-16T11:57:19.400Z,20.10
2019-05-16T11:59:49.795Z,20.30
2019-05-16T12:02:20.194Z,20.50
2019-05-16T12:04:50.557Z,20.50
2019-05-16T12:07:21.068Z,20.40
2019-05-16T12:09:55.447Z,20.30
2019-05-16T12:12:23.555Z,20.20
2019-05-16T12:14:55.983Z,19.90
2019-05-16T12:17:28.046Z,20.00
2019-05-16T12:19:58.335Z,20.10
2019-05-16T12:22:28.703Z,19.90
2019-05-16T12:24:59.066Z,19.70
2019-05-16T12:27:32.752Z,19.40
2019-05-16T12:30:01.554Z,19.30
2019-05-16T12:32:31.940Z,19.40
2019-05-16T12:35:02.322Z,19.40
2019-05-16T12:37:33.555Z,19.50
2019-05-16T12:40:05.969Z,19.60
2019-05-16T12:42:36.635Z,19.60
2019-05-16T12:45:08.989Z,19.50
2019-05-16T12:47:39.380Z,19.40
2019-05-16T12:50:12.851Z,19.10
2019-05-16T12:52:43.300Z,19.10
2019-05-16T12:55:16.570Z,19.20
2019-05-16T12:57:48.895Z,19.30
2019-05-16T13:00:20.706Z,19.40
2019-05-16T13:02:51.090Z,19.30
2019-05-16T13:05:21.811Z,19.30
2019-05-16T13:07:52.243Z,19.30
2019-05-16T13:10:23.522Z,19.20
2019-05-16T13:12:53.904Z,19.00
2019-05-16T13:15:27.180Z,19.20
2019-05-16T13:17:57.152Z,19.30
2019-05-16T13:20:30.437Z,19.10
2019-05-16T13:23:00.818Z,19.20
2019-05-16T13:25:31.187Z,19.30
2019-05-16T13:28:01.733Z,19.30
2019-05-16T13:30:32.114Z,19.20
2019-05-16T13:33:03.476Z,19.00
2019-05-16T13:35:33.838Z,19.00
2019-05-16T13:38:04.210Z,19.10
2019-05-16T13:40:34.597Z,19.20
2019-05-16T13:43:09.802Z,19.20
2019-05-16T13:45:37.798Z,19.20
2019-05-16T13:48:08.457Z,19.30
2019-05-16T13:50:39.965Z,19.30
2019-05-16T13:53:10.457Z,19.20
2019-05-16T13:55:40.901Z,19.20
2019-05-16T13:58:11.269Z,19.20
2019-05-16T14:00:41.710Z,19.30
2019-05-16T14:03:12.172Z,19.40
2019-05-16T14:05:42.516Z,19.60
2019-05-16T14:08:12.979Z,19.70
2019-05-16T14:10:43.352Z,19.70
2019-05-16T14:13:13.758Z,19.60
2019-05-16T14:15:44.122Z,19.70
2019-05-16T14:18:17.479Z,19.80
2019-05-16T14:20:46.896Z,19.90
2019-05-16T14:23:17.876Z,19.80
2019-05-16T14:25:48.654Z,19.80
2019-05-16T14:28:19.218Z,20.00
2019-05-16T14:30:50.651Z,20.20
2019-05-16T14:33:21.296Z,20.30
2019-05-16T14:35:51.774Z,20.20
2019-05-16T14:38:22.164Z,20.00
2019-05-16T14:40:52.619Z,20.00
2019-05-16T14:43:23.077Z,20.00
2019-05-16T14:45:53.521Z,19.80
2019-05-16T14:48:23.891Z,19.70
2019-05-16T14:50:57.313Z,19.80
2019-05-16T14:53:28.397Z,19.80
2019-05-16T14:55:58.638Z,19.70
2019-05-16T14:58:30.746Z,19.60
2019-05-16T15:01:01.109Z,19.80
2019-05-16T15:03:31.573Z,19.90
2019-05-16T15:06:02.193Z,19.80
2019-05-16T15:08:32.579Z,19.90
2019-05-16T15:11:02.949Z,20.00
2019-05-16T15:13:33.336Z,19.90
2019-05-16T15:16:03.746Z,19.80
2019-05-16T15:18:34.205Z,19.90
2019-05-16T15:21:07.981Z,19.70
2019-05-16T15:23:36.765Z,19.50
2019-05-16T15:26:09.399Z,19.40
2019-05-16T15:28:39.253Z,19.40
2019-05-16T15:31:09.628Z,19.60
2019-05-16T15:33:41.631Z,19.80
2019-05-16T15:36:12.029Z,19.70
2019-05-16T15:38:42.476Z,19.70
2019-05-16T15:41:12.937Z,19.60
2019-05-16T15:43:43.597Z,19.50
2019-05-16T15:46:14.255Z,19.50
2019-05-16T15:48:44.636Z,19.30
2019-05-16T15:51:19.056Z,19.10
2019-05-16T15:53:47.627Z,18.90
2019-05-16T15:56:18.053Z,18.70
2019-05-16T15:58:48.403Z,18.60
2019-05-16T16:01:18.849Z,18.60
2019-05-16T16:03:51.182Z,18.50
2019-05-16T16:06:21.714Z,18.50
2019-05-16T16:08:52.110Z,18.50
2019-05-16T16:11:22.483Z,18.50
2019-05-16T16:13:52.972Z,18.50
2019-05-16T16:16:23.288Z,18.70
2019-05-16T16:18:53.680Z,18.70
2019-05-16T16:21:24.047Z,18.70
2019-05-16T16:23:54.479Z,18.80
2019-05-16T16:26:26.794Z,18.80
2019-05-16T16:28:57.031Z,18.80
2019-05-16T16:31:27.524Z,18.60
2019-05-16T16:33:57.875Z,18.60
2019-05-16T16:36:28.259Z,18.50
2019-05-16T16:38:59.806Z,18.20
2019-05-16T16:41:30.177Z,18.00
2019-05-16T16:44:00.580Z,17.90
2019-05-16T16:46:30.956Z,17.80
2019-05-16T16:49:02.414Z,17.70
2019-05-16T16:51:32.782Z,17.60
2019-05-16T16:54:03.290Z,17.50
2019-05-16T16:56:33.659Z,17.50
2019-05-16T16:59:06.302Z,17.60
2019-05-16T17:01:37.351Z,17.70
2019-05-16T17:04:08.284Z,17.50
2019-05-16T17:06:38.659Z,17.40
2019-05-16T17:09:09.321Z,17.60
2019-05-16T17:11:39.693Z,17.70
2019-05-16T17:14:11.647Z,17.50
2019-05-16T17:16:42.006Z,17.40
2019-05-16T17:19:12.401Z,17.20
2019-05-16T17:21:52.264Z,17.00
2019-05-16T17:24:16.835Z,16.90
2019-05-16T17:26:48.374Z,16.80
2019-05-16T17:29:20.256Z,16.70
2019-05-16T17:31:55.489Z,16.60
2019-05-16T17:34:23.029Z,16.50
2019-05-16T17:36:53.385Z,16.40
2019-05-16T17:39:23.883Z,16.30
2019-05-16T17:41:55.738Z,16.30
2019-05-16T17:44:27.196Z,16.30
2019-05-16T17:46:57.793Z,16.20
2019-05-16T17:49:28.143Z,16.10
2019-05-16T17:51:58.515Z,16.10
2019-05-16T17:54:28.907Z,16.00
2019-05-16T17:56:59.445Z,16.00
2019-05-16T17:59:29.859Z,16.00
2019-05-16T18:02:00.322Z,15.90
2019-05-16T18:04:31.757Z,15.80
2019-05-16T18:07:02.128Z,15.70
2019-05-16T18:09:32.582Z,15.60
2019-05-16T18:12:02.965Z,15.60
2019-05-16T18:14:33.344Z,15.50
2019-05-16T18:17:03.724Z,15.30
2019-05-16T18:19:34.089Z,15.10
2019-05-16T18:22:06.538Z,15.10
2019-05-16T18:24:37.928Z,15.00
2019-05-16T18:27:08.317Z,15.00
2019-05-16T18:29:38.684Z,14.90
2019-05-16T18:32:09.090Z,14.80
2019-05-16T18:34:39.465Z,14.70
2019-05-16T18:37:09.845Z,14.60
2019-05-16T18:39:40.226Z,14.50
2019-05-16T18:42:10.611Z,14.40
2019-05-16T18:44:40.990Z,14.30
2019-05-16T18:47:11.733Z,14.20
2019-05-16T18:49:42.183Z,14.20
2019-05-16T18:52:12.736Z,14.10
2019-05-16T18:54:43.137Z,14.10
2019-05-16T18:57:13.572Z,14.10
2019-05-16T18:59:46.133Z,14.10
2019-05-16T19:02:17.989Z,14.10
2019-05-16T19:04:50.120Z,14.00
2019-05-16T19:07:20.134Z,13.90
2019-05-16T19:09:50.523Z,13.90
2019-05-16T19:12:20.882Z,13.90
2019-05-16T19:14:52.334Z,13.80
2019-05-16T19:17:24.842Z,13.80
2019-05-16T19:19:56.892Z,13.80
2019-05-16T19:22:26.882Z,13.70
2019-05-16T19:24:57.497Z,13.60
2019-05-16T19:27:27.941Z,13.60
2019-05-16T19:29:58.331Z,13.60
2019-05-16T19:32:28.706Z,13.50
2019-05-16T19:34:59.108Z,13.40
2019-05-16T19:37:29.579Z,13.50
2019-05-16T19:39:59.980Z,13.50
2019-05-16T19:42:30.374Z,13.40
2019-05-16T19:45:00.756Z,13.30
2019-05-16T19:47:37.113Z,13.30
2019-05-16T19:50:06.629Z,13.10
2019-05-16T19:52:36.961Z,13.10
2019-05-16T19:55:09.228Z,13.10
2019-05-16T19:57:39.613Z,13.10
2019-05-16T20:00:12.395Z,13.10
2019-05-16T20:02:42.767Z,13.10
2019-05-16T20:05:13.375Z,13.00
2019-05-16T20:07:43.932Z,13.00
2019-05-16T20:10:16.872Z,13.00
2019-05-16T20:12:47.432Z,13.00
2019-05-16T20:15:17.962Z,13.00
2019-05-16T20:17:55.149Z,13.00
2019-05-16T20:20:21.065Z,13.00
2019-05-16T20:22:51.506Z,13.00
2019-05-16T20:25:21.887Z,13.00
2019-05-16T20:27:52.252Z,13.00
2019-05-16T20:30:23.370Z,13.00
2019-05-16T20:32:53.759Z,13.00
2019-05-16T20:35:24.151Z,13.00
2019-05-16T20:37:56.219Z,13.00
2019-05-16T20:40:26.715Z,13.00
2019-05-16T20:42:59.500Z,13.00
2019-05-16T20:45:29.971Z,13.00
2019-05-16T20:48:11.140Z,13.00
2019-05-16T20:50:32.763Z,13.00
2019-05-16T20:53:03.132Z,13.00
2019-05-16T20:55:33.519Z,12.90
2019-05-16T20:58:04.094Z,12.90
2019-05-16T21:00:34.555Z,12.90
2019-05-16T21:03:07.048Z,12.90
2019-05-16T21:05:38.285Z,12.90
2019-05-16T21:08:08.923Z,12.90
2019-05-16T21:10:39.319Z,12.90
2019-05-16T21:13:09.680Z,12.90
2019-05-16T21:15:40.069Z,12.90
2019-05-16T21:18:10.435Z,12.90
2019-05-16T21:20:40.827Z,12.90
2019-05-16T21:23:11.191Z,12.90
2019-05-16T21:25:41.813Z,12.90
2019-05-16T21:28:12.184Z,12.80
2019-05-16T21:30:42.774Z,12.90
2019-05-16T21:33:13.206Z,12.90
2019-05-16T21:35:43.761Z,12.90
2019-05-16T21:38:16.360Z,12.90
2019-05-16T21:40:47.284Z,12.90
2019-05-16T21:43:17.649Z,12.90
2019-05-16T21:45:48.051Z,12.90
2019-05-16T21:48:19.468Z,13.00
2019-05-16T21:50:51.072Z,13.00
2019-05-16T21:53:21.455Z,13.00
2019-05-16T21:55:51.948Z,13.00
2019-05-16T21:58:22.332Z,13.00
2019-05-16T22:00:57.165Z,13.00
2019-05-16T22:03:29.152Z,13.00
2019-05-16T22:06:00.930Z,13.00
2019-05-16T22:08:31.332Z,13.00
2019-05-16T22:11:03.619Z,13.00
2019-05-16T22:13:37.092Z,13.00
2019-05-16T22:16:08.226Z,13.00
2019-05-16T22:18:38.812Z,13.00
2019-05-16T22:21:09.647Z,13.00
2019-05-16T22:23:40.065Z,13.00
2019-05-16T22:26:10.582Z,13.10
2019-05-16T22:28:40.961Z,13.10
2019-05-16T22:31:11.529Z,13.10
2019-05-16T22:33:41.895Z,13.10
2019-05-16T22:36:12.281Z,13.00
2019-05-16T22:38:42.644Z,13.00
2019-05-16T22:41:13.134Z,13.00
2019-05-16T22:43:43.484Z,13.00
2019-05-16T22:46:14.095Z,12.90
2019-05-16T22:48:46.660Z,12.90
2019-05-16T22:51:16.897Z,13.00
2019-05-16T22:53:52.346Z,13.00
2019-05-16T22:56:22.860Z,13.00
2019-05-16T22:58:53.285Z,13.00
2019-05-16T23:01:23.671Z,13.00
2019-05-16T23:03:54.038Z,13.00
2019-05-16T23:06:26.800Z,12.90
2019-05-16T23:08:56.748Z,12.90
2019-05-16T23:11:27.209Z,12.90
2019-05-16T23:13:57.574Z,12.90
2019-05-16T23:16:27.966Z,12.90
2019-05-16T23:18:58.972Z,12.90
2019-05-16T23:21:30.431Z,12.90
2019-05-16T23:24:00.887Z,12.80
2019-05-16T23:26:31.276Z,12.70
2019-05-16T23:29:01.644Z,12.70
2019-05-16T23:31:32.029Z,12.70
2019-05-16T23:34:02.395Z,12.70
2019-05-16T23:36:32.783Z,12.70
2019-05-16T23:39:06.281Z,12.70
2019-05-16T23:41:36.836Z,12.70
2019-05-16T23:44:07.588Z,12.60
2019-05-16T23:46:38.015Z,12.60
2019-05-16T23:49:08.393Z,12.50
2019-05-16T23:51:38.785Z,12.50
2019-05-16T23:54:09.151Z,12.50
2019-05-16T23:56:40.901Z,12.50
2019-05-16T23:59:12.037Z,12.50
